createdAt,value
2017-04-26T00:00:55.021Z,99943.88
2017-04-26T00:01:56.895Z,99938.31
2017-04-26T00:02:57.915Z,99941.60
2017-04-26T00:03:59.237Z,99933.23
2017-04-26T00:05:00.619Z,99933.02
2017-04-26T00:06:01.649Z,99928.24
2017-04-26T00:07:02.725Z,99938.91
2017-04-26T00:08:04.067Z,99934.66
2017-04-26T00:09:06.345Z,99926.02
2017-04-26T00:10:07.888Z,99924.55
2017-04-26T00:11:08.920Z,99926.98
2017-04-26T00:12:09.837Z,99924.86
2017-04-26T00:13:10.983Z,99927.20
2017-04-26T00:14:11.886Z,99926.70
2017-04-26T00:15:13.174Z,99924.87
2017-04-26T00:16:14.746Z,99926.88
2017-04-26T00:17:15.761Z,99922.42
2017-04-26T00:18:16.887Z,99923.78
2017-04-26T00:19:18.092Z,99920.98
2017-04-26T00:20:19.525Z,99933.59
2017-04-26T00:21:20.761Z,99925.73
2017-04-26T00:22:21.803Z,99928.38
2017-04-26T00:23:23.280Z,99930.50
2017-04-26T00:24:24.741Z,99933.10
2017-04-26T00:25:25.859Z,99933.16
2017-04-26T00:26:27.450Z,99937.73
2017-04-26T00:27:28.661Z,99936.71
2017-04-26T00:28:29.709Z,99937.80
2017-04-26T00:29:31.317Z,99938.86
2017-04-26T00:30:32.276Z,99937.10
2017-04-26T00:31:33.505Z,99935.96
2017-04-26T00:32:34.755Z,99940.16
2017-04-26T00:33:35.996Z,99937.42
2017-04-26T00:34:37.332Z,99929.62
2017-04-26T00:35:38.507Z,99931.08
2017-04-26T00:36:40.122Z,99930.68
2017-04-26T00:37:41.718Z,99931.58
2017-04-26T00:38:42.781Z,99928.93
2017-04-26T00:39:43.934Z,99927.33
2017-04-26T00:40:44.855Z,99932.56
2017-04-26T00:41:45.785Z,99940.73
2017-04-26T00:42:46.871Z,99941.41
2017-04-26T00:43:47.986Z,99940.70
2017-04-26T00:44:48.973Z,99939.75
2017-04-26T00:45:49.952Z,99944.10
2017-04-26T00:46:51.090Z,99951.55
2017-04-26T00:47:52.196Z,99948.59
2017-04-26T00:48:53.199Z,99948.16
2017-04-26T00:49:54.310Z,99944.28
2017-04-26T00:50:55.436Z,99935.04
2017-04-26T00:51:56.322Z,99927.13
2017-04-26T00:52:57.448Z,99922.45
2017-04-26T00:53:58.369Z,99917.05
2017-04-26T00:54:59.664Z,99921.14
2017-04-26T00:56:00.820Z,99920.52
2017-04-26T00:57:02.092Z,99921.22
2017-04-26T00:58:03.122Z,99921.25
2017-04-26T00:59:04.385Z,99926.22
2017-04-26T01:00:05.513Z,99928.49
2017-04-26T01:01:06.750Z,99924.52
2017-04-26T01:02:07.795Z,99929.69
2017-04-26T01:03:08.882Z,99925.70
2017-04-26T01:04:09.902Z,99923.05
2017-04-26T01:05:11.130Z,99914.46
2017-04-26T01:06:12.314Z,99909.63
2017-04-26T01:07:13.458Z,99914.66
2017-04-26T01:08:14.598Z,99914.78
2017-04-26T01:09:15.694Z,99918.67
2017-04-26T01:10:17.037Z,99925.52
2017-04-26T01:11:18.221Z,99922.58
2017-04-26T01:12:19.206Z,99922.53
2017-04-26T01:13:20.459Z,99928.72
2017-04-26T01:14:21.787Z,99935.20
2017-04-26T01:15:22.825Z,99941.72
2017-04-26T01:16:24.290Z,99945.99
2017-04-26T01:17:25.589Z,99941.90
2017-04-26T01:18:26.750Z,99950.25
2017-04-26T01:19:27.856Z,99952.51
2017-04-26T01:20:29.300Z,99951.98
2017-04-26T01:21:30.379Z,99944.94
2017-04-26T01:22:31.894Z,99952.31
2017-04-26T01:23:33.302Z,99953.06
2017-04-26T01:24:34.493Z,99962.19
2017-04-26T01:25:35.585Z,99966.95
2017-04-26T01:26:36.819Z,99972.67
2017-04-26T01:27:37.809Z,99979.13
2017-04-26T01:28:39.477Z,99982.98
2017-04-26T01:29:40.543Z,99976.83
2017-04-26T01:30:42.008Z,99978.73
2017-04-26T01:31:43.426Z,99980.80
2017-04-26T01:32:44.775Z,99980.96
2017-04-26T01:33:45.795Z,99980.64
2017-04-26T01:34:47.136Z,99983.25
2017-04-26T01:35:48.678Z,99977.69
2017-04-26T01:36:50.028Z,99976.72
2017-04-26T01:37:51.155Z,99972.03
2017-04-26T01:38:52.277Z,99976.38
2017-04-26T01:39:53.934Z,99977.72
2017-04-26T01:40:55.086Z,99979.77
2017-04-26T01:41:56.436Z,99980.42
2017-04-26T01:42:57.847Z,99974.52
2017-04-26T01:43:59.086Z,99972.94
2017-04-26T01:45:00.546Z,99971.55
2017-04-26T01:46:01.776Z,99972.77
2017-04-26T01:47:03.241Z,99965.73
2017-04-26T01:48:04.545Z,99964.12
2017-04-26T01:49:05.918Z,99958.16
2017-04-26T01:50:07.159Z,99959.73
2017-04-26T01:51:08.795Z,99960.15
2017-04-26T01:52:10.120Z,99972.29
2017-04-26T01:53:11.521Z,99973.53
2017-04-26T01:54:13.016Z,99972.14
2017-04-26T01:55:14.012Z,99976.80
2017-04-26T01:56:15.059Z,99974.11
2017-04-26T01:57:16.485Z,99967.58
2017-04-26T01:58:17.728Z,99971.18
2017-04-26T01:59:18.874Z,99973.34
2017-04-26T02:00:20.321Z,99973.15
2017-04-26T02:01:21.965Z,99977.92
2017-04-26T02:02:23.591Z,99980.27
2017-04-26T02:03:25.257Z,99982.95
2017-04-26T02:04:26.480Z,99976.44
2017-04-26T02:05:28.097Z,99983.08
2017-04-26T02:06:29.155Z,99973.80
2017-04-26T02:07:30.226Z,99976.84
2017-04-26T02:08:31.417Z,99977.92
2017-04-26T02:09:32.527Z,99971.52
2017-04-26T02:10:34.420Z,99971.16
2017-04-26T02:11:35.444Z,99962.55
2017-04-26T02:12:36.682Z,99965.91
2017-04-26T02:13:37.817Z,99967.98
2017-04-26T02:14:38.949Z,99965.89
2017-04-26T02:15:40.404Z,99965.05
2017-04-26T02:16:41.714Z,99961.93
2017-04-26T02:17:42.737Z,99962.06
2017-04-26T02:18:44.692Z,99963.17
2017-04-26T02:19:45.937Z,99963.58
2017-04-26T02:20:47.518Z,99963.95
2017-04-26T02:21:48.733Z,99972.60
2017-04-26T02:22:50.063Z,99977.77
2017-04-26T02:23:51.183Z,99964.80
2017-04-26T02:24:52.319Z,99967.43
2017-04-26T02:25:53.576Z,99965.90
2017-04-26T02:26:54.672Z,99948.00
2017-04-26T02:27:55.746Z,99948.39
2017-04-26T02:28:56.877Z,99943.67
2017-04-26T02:29:57.993Z,99942.81
2017-04-26T02:30:59.022Z,99942.30
2017-04-26T02:32:00.151Z,99943.27
2017-04-26T02:33:01.344Z,99941.02
2017-04-26T02:34:02.381Z,99942.73
2017-04-26T02:35:03.687Z,99939.90
2017-04-26T02:36:05.146Z,99947.95
2017-04-26T02:37:06.848Z,99949.52
2017-04-26T02:38:08.141Z,99954.03
2017-04-26T02:39:09.367Z,99953.26
2017-04-26T02:40:10.598Z,99957.58
2017-04-26T02:41:12.273Z,99953.70
2017-04-26T02:42:13.497Z,99949.25
2017-04-26T02:43:14.773Z,99948.45
2017-04-26T02:44:16.130Z,99950.28
2017-04-26T02:45:17.385Z,99953.22
2017-04-26T02:46:18.516Z,99953.64
2017-04-26T02:47:19.545Z,99951.91
2017-04-26T02:48:20.846Z,99954.03
2017-04-26T02:49:22.131Z,99950.53
2017-04-26T02:50:23.273Z,99946.72
2017-04-26T02:51:24.539Z,99956.08
2017-04-26T02:52:25.878Z,99960.41
2017-04-26T02:53:27.105Z,99964.98
2017-04-26T02:54:28.466Z,99965.81
2017-04-26T02:55:29.780Z,99973.03
2017-04-26T02:56:30.817Z,99971.72
2017-04-26T02:57:32.090Z,99969.76
2017-04-26T02:58:33.411Z,99966.41
2017-04-26T02:59:34.733Z,99974.21
2017-04-26T03:00:36.084Z,99973.43
2017-04-26T03:01:37.355Z,99979.38
2017-04-26T03:02:38.470Z,99971.80
2017-04-26T03:03:39.701Z,99973.80
2017-04-26T03:04:41.340Z,99974.85
2017-04-26T03:05:42.565Z,99975.50
2017-04-26T03:06:43.890Z,99976.52
2017-04-26T03:07:44.906Z,99978.06
2017-04-26T03:08:46.171Z,99974.27
2017-04-26T03:09:47.886Z,99981.88
2017-04-26T03:10:49.037Z,99974.53
2017-04-26T03:11:50.337Z,99974.08
2017-04-26T03:12:51.390Z,99978.92
2017-04-26T03:13:53.372Z,99981.29
2017-04-26T03:14:54.591Z,99980.13
2017-04-26T03:15:55.646Z,99981.31
2017-04-26T03:16:56.798Z,99988.98
2017-04-26T03:17:57.889Z,99981.55
2017-04-26T03:18:59.081Z,99985.37
2017-04-26T03:20:00.338Z,99989.22
2017-04-26T03:21:01.923Z,99985.48
2017-04-26T03:22:03.512Z,99996.77
2017-04-26T03:23:04.608Z,99986.46
2017-04-26T03:24:06.197Z,99993.45
2017-04-26T03:25:07.587Z,99992.16
2017-04-26T03:26:08.806Z,99988.73
2017-04-26T03:27:10.041Z,99982.23
2017-04-26T03:28:11.278Z,99990.42
2017-04-26T03:29:12.293Z,99992.86
2017-04-26T03:30:13.310Z,99990.67
2017-04-26T03:31:14.432Z,99988.00
2017-04-26T03:32:15.915Z,99982.52
2017-04-26T03:33:17.110Z,99980.41
2017-04-26T03:34:18.285Z,99986.56
2017-04-26T03:35:19.435Z,99981.95
2017-04-26T03:36:20.881Z,99983.16
2017-04-26T03:37:22.101Z,99981.09
2017-04-26T03:38:23.343Z,99982.82
2017-04-26T03:39:24.577Z,99979.36
2017-04-26T03:40:26.021Z,99983.47
2017-04-26T03:41:27.361Z,99980.61
2017-04-26T03:42:28.392Z,99975.39
2017-04-26T03:43:29.640Z,99985.95
2017-04-26T03:44:30.863Z,99982.84
2017-04-26T03:45:32.100Z,99976.06
2017-04-26T03:46:33.338Z,99978.39
2017-04-26T03:47:34.874Z,99979.65
2017-04-26T03:48:36.101Z,99974.55
2017-04-26T03:49:37.302Z,99978.95
2017-04-26T03:50:38.364Z,99990.73
2017-04-26T03:51:39.444Z,99983.38
2017-04-26T03:52:40.942Z,99986.58
2017-04-26T03:53:42.106Z,99995.53
2017-04-26T03:54:43.523Z,99993.36
2017-04-26T03:55:45.017Z,99994.19
2017-04-26T03:56:46.385Z,99998.03
2017-04-26T03:57:47.791Z,99996.97
2017-04-26T03:58:48.970Z,100003.37
2017-04-26T03:59:50.281Z,100001.84
2017-04-26T04:00:51.690Z,99997.94
2017-04-26T04:01:52.723Z,99999.67
2017-04-26T04:02:54.075Z,100004.10
2017-04-26T04:03:55.201Z,100002.99
2017-04-26T04:04:56.582Z,100004.97
2017-04-26T04:05:57.774Z,100008.02
2017-04-26T04:06:58.936Z,100006.75
2017-04-26T04:08:00.156Z,100005.08
2017-04-26T04:09:01.679Z,100005.92
2017-04-26T04:10:02.925Z,100004.56
2017-04-26T04:11:04.290Z,100001.61
2017-04-26T04:12:05.674Z,100005.60
2017-04-26T04:13:06.911Z,100001.61
2017-04-26T04:14:09.605Z,100006.92
2017-04-26T04:15:11.057Z,100005.63
2017-04-26T04:16:12.599Z,100006.92
2017-04-26T04:17:14.039Z,100011.74
2017-04-26T04:18:15.786Z,100013.08
2017-04-26T04:19:17.038Z,100014.78
2017-04-26T04:20:18.125Z,100010.69
2017-04-26T04:21:19.406Z,100010.03
2017-04-26T04:22:20.727Z,99999.92
2017-04-26T04:23:22.255Z,100004.88
2017-04-26T04:24:23.485Z,100011.56
2017-04-26T04:25:25.032Z,100007.09
2017-04-26T04:26:26.380Z,100008.44
2017-04-26T04:27:27.416Z,100008.98
2017-04-26T04:28:28.852Z,100012.34
2017-04-26T04:29:30.104Z,100011.58
2017-04-26T04:30:31.439Z,100008.28
2017-04-26T04:31:32.856Z,100010.89
2017-04-26T04:32:34.114Z,100014.41
2017-04-26T04:33:35.423Z,100015.91
2017-04-26T04:34:36.546Z,100008.97
2017-04-26T04:35:37.809Z,100010.61
2017-04-26T04:36:39.055Z,100006.89
2017-04-26T04:37:40.378Z,100011.22
2017-04-26T04:38:41.573Z,100005.56
2017-04-26T04:39:42.968Z,100018.39
2017-04-26T04:40:44.170Z,100021.98
2017-04-26T04:41:45.682Z,100026.80
2017-04-26T04:42:46.857Z,100027.58
2017-04-26T04:43:48.161Z,100026.95
2017-04-26T04:44:49.438Z,100024.72
2017-04-26T04:45:50.674Z,100023.85
2017-04-26T04:46:51.825Z,100018.20
2017-04-26T04:47:53.116Z,100015.10
2017-04-26T04:48:54.369Z,100017.33
2017-04-26T04:49:55.720Z,100018.84
2017-04-26T04:50:56.952Z,100016.91
2017-04-26T04:51:58.335Z,100015.50
2017-04-26T04:52:59.590Z,100012.34
2017-04-26T04:54:01.007Z,100015.01
2017-04-26T04:55:02.348Z,100015.35
2017-04-26T04:56:03.761Z,100016.73
2017-04-26T04:57:10.612Z,100010.67
2017-04-26T04:58:12.178Z,100020.31
2017-04-26T04:59:13.619Z,100013.73
2017-04-26T05:00:15.239Z,100021.31
2017-04-26T05:01:17.400Z,100015.43
2017-04-26T05:02:19.393Z,100027.11
2017-04-26T05:03:20.664Z,100025.39
2017-04-26T05:04:21.946Z,100028.01
2017-04-26T05:05:23.113Z,100024.09
2017-04-26T05:06:24.210Z,100022.79
2017-04-26T05:07:25.421Z,100028.44
2017-04-26T05:08:26.603Z,100024.86
2017-04-26T05:09:28.034Z,100029.13
2017-04-26T05:10:30.211Z,100028.32
2017-04-26T05:11:31.602Z,100027.79
2017-04-26T05:12:33.196Z,100029.95
2017-04-26T05:13:34.423Z,100027.53
2017-04-26T05:14:35.749Z,100028.39
2017-04-26T05:15:36.988Z,100032.89
2017-04-26T05:16:38.525Z,100033.46
2017-04-26T05:17:39.869Z,100031.20
2017-04-26T05:18:41.256Z,100037.60
2017-04-26T05:19:42.443Z,100038.71
2017-04-26T05:20:43.912Z,100032.38
2017-04-26T05:21:45.171Z,100038.80
2017-04-26T05:22:46.648Z,100044.34
2017-04-26T05:23:48.012Z,100039.38
2017-04-26T05:24:49.573Z,100038.08
2017-04-26T05:25:50.859Z,100042.86
2017-04-26T05:26:52.180Z,100049.12
2017-04-26T05:27:53.653Z,100050.57
2017-04-26T05:28:54.994Z,100049.19
2017-04-26T05:29:56.464Z,100055.62
2017-04-26T05:30:57.681Z,100055.53
2017-04-26T05:31:59.389Z,100058.97
2017-04-26T05:33:00.838Z,100054.28
2017-04-26T05:34:02.844Z,100059.41
2017-04-26T05:35:04.724Z,100063.20
2017-04-26T05:36:06.216Z,100064.77
2017-04-26T05:37:07.565Z,100059.91
2017-04-26T05:38:08.792Z,100063.17
2017-04-26T05:39:10.347Z,100062.17
2017-04-26T05:40:11.887Z,100064.02
2017-04-26T05:41:13.225Z,100056.14
2017-04-26T05:42:14.458Z,100059.39
2017-04-26T05:43:15.840Z,100057.84
2017-04-26T05:44:17.236Z,100060.66
2017-04-26T05:45:18.679Z,100055.91
2017-04-26T05:46:20.677Z,100054.23
2017-04-26T05:47:22.117Z,100052.97
2017-04-26T05:48:23.327Z,100057.37
2017-04-26T05:49:24.612Z,100060.52
2017-04-26T05:50:25.869Z,100058.25
2017-04-26T05:51:27.012Z,100052.71
2017-04-26T05:52:28.210Z,100059.66
2017-04-26T05:53:29.150Z,100066.49
2017-04-26T05:54:30.344Z,100066.44
2017-04-26T05:55:31.658Z,100067.46
2017-04-26T05:56:32.788Z,100071.37
2017-04-26T05:57:35.159Z,100069.05
2017-04-26T05:58:36.381Z,100068.14
2017-04-26T05:59:37.545Z,100068.72
2017-04-26T06:00:39.181Z,100069.19
2017-04-26T06:01:40.434Z,100073.45
2017-04-26T06:02:46.726Z,100075.08
2017-04-26T06:03:49.839Z,100079.84
2017-04-26T06:04:51.342Z,100075.01
2017-04-26T06:05:52.562Z,100077.67
2017-04-26T06:06:53.734Z,100081.10
2017-04-26T06:07:54.871Z,100080.22
2017-04-26T06:08:56.035Z,100078.48
2017-04-26T06:09:57.172Z,100083.16
2017-04-26T06:11:01.673Z,100083.14
2017-04-26T06:12:04.674Z,100082.77
2017-04-26T06:13:07.527Z,100089.13
2017-04-26T06:14:08.935Z,100080.52
2017-04-26T06:15:10.074Z,100079.67
2017-04-26T06:16:11.207Z,100076.99
2017-04-26T06:17:12.453Z,100081.28
2017-04-26T06:18:13.642Z,100076.45
2017-04-26T06:19:14.755Z,100087.25
2017-04-26T06:20:15.924Z,100089.80
2017-04-26T06:21:17.113Z,100081.95
2017-04-26T06:22:18.338Z,100085.41
2017-04-26T06:23:19.563Z,100088.48
2017-04-26T06:24:20.729Z,100088.84
2017-04-26T06:25:21.836Z,100091.83
2017-04-26T06:26:23.147Z,100093.37
2017-04-26T06:27:24.102Z,100087.31
2017-04-26T06:28:25.327Z,100087.73
2017-04-26T06:29:26.345Z,100089.44
2017-04-26T06:30:27.798Z,100087.73
2017-04-26T06:31:29.035Z,100086.42
2017-04-26T06:32:30.181Z,100089.80
2017-04-26T06:33:31.625Z,100089.33
2017-04-26T06:34:32.966Z,100088.75
2017-04-26T06:35:34.303Z,100088.28
2017-04-26T06:36:35.701Z,100096.62
2017-04-26T06:37:36.985Z,100095.47
2017-04-26T06:38:38.355Z,100093.70
2017-04-26T06:39:39.695Z,100088.05
2017-04-26T06:40:41.097Z,100089.59
2017-04-26T06:41:42.418Z,100087.77
2017-04-26T06:42:43.554Z,100087.21
2017-04-26T06:43:44.853Z,100088.80
2017-04-26T06:44:46.246Z,100092.42
2017-04-26T06:45:47.383Z,100091.79
2017-04-26T06:46:48.519Z,100097.59
2017-04-26T06:47:49.862Z,100093.16
2017-04-26T06:48:50.880Z,100093.02
2017-04-26T06:49:52.017Z,100087.38
2017-04-26T06:50:52.977Z,100096.88
2017-04-26T06:51:54.187Z,100101.30
2017-04-26T06:52:55.310Z,100101.27
2017-04-26T06:53:56.585Z,100101.95
2017-04-26T06:54:57.730Z,100103.98
2017-04-26T06:55:58.959Z,100106.70
2017-04-26T06:57:00.161Z,100108.39
2017-04-26T06:58:01.397Z,100110.23
2017-04-26T06:59:02.486Z,100108.84
2017-04-26T07:00:03.679Z,100100.88
2017-04-26T07:01:04.678Z,100101.65
2017-04-26T07:02:05.776Z,100106.22
2017-04-26T07:03:08.305Z,100103.88
2017-04-26T07:04:09.356Z,100101.20
2017-04-26T07:05:10.547Z,100105.95
2017-04-26T07:06:11.585Z,100108.90
2017-04-26T07:07:12.554Z,100106.61
2017-04-26T07:08:13.754Z,100103.50
2017-04-26T07:09:15.113Z,100101.70
2017-04-26T07:10:16.479Z,100100.58
2017-04-26T07:11:17.766Z,100093.23
2017-04-26T07:12:18.758Z,100097.13
2017-04-26T07:13:19.866Z,100093.81
2017-04-26T07:14:21.178Z,100098.91
2017-04-26T07:15:22.359Z,100096.95
2017-04-26T07:16:23.759Z,100094.63
2017-04-26T07:17:24.995Z,100095.25
2017-04-26T07:18:26.250Z,100100.55
2017-04-26T07:19:27.707Z,100102.41
2017-04-26T07:20:28.922Z,100100.31
2017-04-26T07:21:30.457Z,100100.90
2017-04-26T07:22:31.704Z,100110.06
2017-04-26T07:23:33.043Z,100107.38
2017-04-26T07:24:34.386Z,100105.25
2017-04-26T07:25:35.564Z,100108.88
2017-04-26T07:26:36.742Z,100112.20
2017-04-26T07:27:37.876Z,100106.05
2017-04-26T07:28:39.095Z,100109.80
2017-04-26T07:29:40.237Z,100102.25
2017-04-26T07:30:41.409Z,100102.05
2017-04-26T07:31:42.650Z,100101.65
2017-04-26T07:32:43.770Z,100104.97
2017-04-26T07:33:44.925Z,100104.56
2017-04-26T07:34:46.092Z,100104.72
2017-04-26T07:35:47.268Z,100101.22
2017-04-26T07:36:48.493Z,100105.89
2017-04-26T07:37:49.542Z,100097.25
2017-04-26T07:38:50.661Z,100099.67
2017-04-26T07:39:51.810Z,100099.14
2017-04-26T07:40:52.919Z,100100.43
2017-04-26T07:41:54.120Z,100093.95
2017-04-26T07:42:55.320Z,100096.68
2017-04-26T07:43:56.547Z,100100.48
2017-04-26T07:44:57.717Z,100096.23
2017-04-26T07:45:58.906Z,100095.07
2017-04-26T07:47:00.149Z,100091.80
2017-04-26T07:48:01.395Z,100090.20
2017-04-26T07:49:02.566Z,100091.13
2017-04-26T07:50:03.684Z,100099.20
2017-04-26T07:51:05.309Z,100096.61
2017-04-26T07:52:07.094Z,100095.50
2017-04-26T07:53:08.296Z,100096.98
2017-04-26T07:54:09.939Z,100090.50
2017-04-26T07:55:11.249Z,100090.90
2017-04-26T07:56:12.393Z,100087.63
2017-04-26T07:57:13.674Z,100083.00
2017-04-26T07:58:14.655Z,100084.56
2017-04-26T07:59:15.894Z,100083.56
2017-04-26T08:00:17.036Z,100083.75
2017-04-26T08:01:18.020Z,100083.27
2017-04-26T08:02:19.069Z,100079.41
2017-04-26T08:03:20.208Z,100081.29
2017-04-26T08:04:21.325Z,100080.44
2017-04-26T08:05:22.422Z,100081.72
2017-04-26T08:06:23.501Z,100081.64
2017-04-26T08:07:24.586Z,100080.55
2017-04-26T08:08:25.650Z,100080.27
2017-04-26T08:09:26.666Z,100083.29
2017-04-26T08:10:28.942Z,100077.61
2017-04-26T08:11:30.154Z,100081.55
2017-04-26T08:12:31.190Z,100073.52
2017-04-26T08:13:32.049Z,100076.45
2017-04-26T08:14:33.167Z,100076.30
2017-04-26T08:15:34.179Z,100077.56
2017-04-26T08:16:35.253Z,100080.53
2017-04-26T08:17:36.100Z,100082.80
2017-04-26T08:18:37.148Z,100077.27
2017-04-26T08:19:38.215Z,100073.83
2017-04-26T08:20:39.274Z,100076.98
2017-04-26T08:21:40.590Z,100071.22
2017-04-26T08:22:41.590Z,100071.56
2017-04-26T08:23:42.657Z,100076.91
2017-04-26T08:24:43.642Z,100074.30
2017-04-26T08:25:44.698Z,100066.77
2017-04-26T08:26:45.769Z,100063.50
2017-04-26T08:27:46.797Z,100071.03
2017-04-26T08:28:47.901Z,100066.99
2017-04-26T08:29:49.039Z,100063.48
2017-04-26T08:30:50.072Z,100064.55
2017-04-26T08:31:50.922Z,100070.80
2017-04-26T08:32:51.930Z,100065.84
2017-04-26T08:33:52.819Z,100066.10
2017-04-26T08:34:54.096Z,100071.28
2017-04-26T08:35:55.135Z,100062.77
2017-04-26T08:36:56.174Z,100068.24
2017-04-26T08:37:57.186Z,100075.19
2017-04-26T08:38:58.334Z,100070.86
2017-04-26T08:39:59.142Z,100071.86
2017-04-26T08:41:00.298Z,100070.43
2017-04-26T08:42:01.335Z,100067.95
2017-04-26T08:43:02.367Z,100070.72
2017-04-26T08:44:03.554Z,100075.10
2017-04-26T08:45:04.767Z,100079.27
2017-04-26T08:46:05.825Z,100074.25
2017-04-26T08:47:06.947Z,100078.16
2017-04-26T08:48:08.192Z,100075.33
2017-04-26T08:49:09.303Z,100079.75
2017-04-26T08:50:10.287Z,100077.34
2017-04-26T08:51:11.297Z,100074.70
2017-04-26T08:52:12.342Z,100078.97
2017-04-26T08:53:13.894Z,100070.75
2017-04-26T08:54:15.357Z,100074.82
2017-04-26T08:55:16.531Z,100075.53
2017-04-26T08:56:17.509Z,100068.38
2017-04-26T08:57:18.618Z,100075.08
2017-04-26T08:58:19.710Z,100074.05
2017-04-26T08:59:20.775Z,100078.32
2017-04-26T09:00:21.891Z,100074.65
2017-04-26T09:01:23.178Z,100076.33
2017-04-26T09:02:24.190Z,100079.89
2017-04-26T09:03:25.193Z,100076.30
2017-04-26T09:04:26.190Z,100075.98
2017-04-26T09:05:27.278Z,100078.66
2017-04-26T09:06:28.130Z,100075.13
2017-04-26T09:07:29.523Z,100076.20
2017-04-26T09:08:30.394Z,100075.47
2017-04-26T09:09:31.207Z,100076.31
2017-04-26T09:10:32.018Z,100080.70
2017-04-26T09:11:33.082Z,100078.73
2017-04-26T09:12:33.926Z,100086.27
2017-04-26T09:13:34.949Z,100075.82
2017-04-26T09:14:36.003Z,100077.87
2017-04-26T09:15:37.395Z,100080.52
2017-04-26T09:16:38.497Z,100079.97
2017-04-26T09:17:39.573Z,100080.39
2017-04-26T09:18:40.710Z,100079.87
2017-04-26T09:19:41.794Z,100084.16
2017-04-26T09:20:43.913Z,100080.67
2017-04-26T09:21:45.171Z,100085.21
2017-04-26T09:22:46.206Z,100087.95
2017-04-26T09:23:47.190Z,100093.84
2017-04-26T09:24:48.193Z,100090.12
2017-04-26T09:25:49.091Z,100090.31
2017-04-26T09:26:49.978Z,100099.97
2017-04-26T09:27:50.981Z,100091.77
2017-04-26T09:28:52.115Z,100093.19
2017-04-26T09:29:53.138Z,100096.87
2017-04-26T09:30:54.151Z,100098.20
2017-04-26T09:31:55.041Z,100096.32
2017-04-26T09:32:55.886Z,100094.06
2017-04-26T09:33:57.305Z,100097.04
2017-04-26T09:34:58.109Z,100096.89
2017-04-26T09:35:59.164Z,100100.38
2017-04-26T09:37:00.414Z,100094.63
2017-04-26T09:38:01.699Z,100097.19
2017-04-26T09:39:02.730Z,100093.77
2017-04-26T09:40:03.998Z,100101.97
2017-04-26T09:41:05.053Z,100101.87
2017-04-26T09:42:07.154Z,100101.05
2017-04-26T09:43:08.090Z,100104.02
2017-04-26T09:44:09.131Z,100097.00
2017-04-26T09:45:10.159Z,100104.20
2017-04-26T09:46:11.142Z,100100.23
2017-04-26T09:47:12.166Z,100094.19
2017-04-26T09:48:13.658Z,100092.83
2017-04-26T09:49:14.713Z,100095.50
2017-04-26T09:50:15.738Z,100101.03
2017-04-26T09:51:16.767Z,100095.27
2017-04-26T09:52:17.862Z,100102.73
2017-04-26T09:53:18.891Z,100100.83
2017-04-26T09:54:19.983Z,100101.48
2017-04-26T09:55:20.870Z,100105.86
2017-04-26T09:56:21.938Z,100106.42
2017-04-26T09:57:22.990Z,100107.39
2017-04-26T09:58:23.866Z,100101.91
2017-04-26T09:59:24.886Z,100104.81
2017-04-26T10:00:26.280Z,100109.20
2017-04-26T10:01:27.314Z,100104.30
2017-04-26T10:02:28.362Z,100110.94
2017-04-26T10:03:29.425Z,100107.52
2017-04-26T10:04:30.291Z,100104.09
2017-04-26T10:05:31.386Z,100103.98
2017-04-26T10:06:32.415Z,100102.63
2017-04-26T10:07:33.423Z,100103.51
2017-04-26T10:08:34.275Z,100099.88
2017-04-26T10:09:35.722Z,100104.28
2017-04-26T10:10:36.763Z,100102.70
2017-04-26T10:11:37.683Z,100099.73
2017-04-26T10:12:38.691Z,100097.97
2017-04-26T10:13:39.746Z,100093.64
2017-04-26T10:14:47.781Z,100098.02
2017-04-26T10:15:41.838Z,100095.67
2017-04-26T10:16:42.630Z,100096.41
2017-04-26T10:17:43.780Z,100092.51
2017-04-26T10:18:44.866Z,100093.23
2017-04-26T10:19:45.720Z,100087.84
2017-04-26T10:20:46.758Z,100094.20
2017-04-26T10:21:47.754Z,100092.41
2017-04-26T10:22:48.793Z,100086.49
2017-04-26T10:23:49.845Z,100086.49
2017-04-26T10:24:50.860Z,100082.13
2017-04-26T10:25:52.031Z,100084.27
2017-04-26T10:26:53.035Z,100079.32
2017-04-26T10:27:59.262Z,100081.31
2017-04-26T10:28:54.800Z,100086.73
2017-04-26T10:29:55.582Z,100082.83
2017-04-26T10:30:56.622Z,100083.77
2017-04-26T10:31:57.675Z,100083.75
2017-04-26T10:32:58.514Z,100080.47
2017-04-26T10:33:59.714Z,100081.70
2017-04-26T10:35:00.603Z,100079.16
2017-04-26T10:36:01.725Z,100078.30
2017-04-26T10:37:03.165Z,100069.72
2017-04-26T10:38:04.278Z,100073.59
2017-04-26T10:39:06.742Z,100073.45
2017-04-26T10:40:08.247Z,100072.14
2017-04-26T10:41:09.272Z,100071.11
2017-04-26T10:42:10.644Z,100073.38
2017-04-26T10:43:11.867Z,100075.64
2017-04-26T10:44:12.986Z,100078.36
2017-04-26T10:45:18.151Z,100072.58
2017-04-26T10:46:19.194Z,100073.41
2017-04-26T10:47:20.203Z,100082.90
2017-04-26T10:48:21.603Z,100077.87
2017-04-26T10:49:22.668Z,100081.97
2017-04-26T10:50:23.675Z,100083.95
2017-04-26T10:51:25.162Z,100084.50
2017-04-26T10:52:26.208Z,100083.98
2017-04-26T10:53:27.188Z,100084.66
2017-04-26T10:54:28.273Z,100086.22
2017-04-26T10:55:29.183Z,100087.84
2017-04-26T10:56:30.214Z,100092.60
2017-04-26T10:57:31.146Z,100099.23
2017-04-26T10:58:32.234Z,100099.78
2017-04-26T10:59:33.377Z,100094.07
2017-04-26T11:00:34.729Z,100093.92
2017-04-26T11:01:35.647Z,100101.28
2017-04-26T11:02:36.710Z,100102.41
2017-04-26T11:03:37.671Z,100090.56
2017-04-26T11:04:41.759Z,100100.75
2017-04-26T11:05:42.842Z,100105.91
2017-04-26T11:06:44.046Z,100103.62
2017-04-26T11:07:45.139Z,100106.06
2017-04-26T11:08:46.142Z,100104.11
2017-04-26T11:09:47.451Z,100102.25
2017-04-26T11:10:48.542Z,100106.52
2017-04-26T11:11:49.597Z,100106.64
2017-04-26T11:12:51.043Z,100110.03
2017-04-26T11:13:52.098Z,100111.80
2017-04-26T11:14:53.196Z,100110.58
2017-04-26T11:15:54.241Z,100113.27
2017-04-26T11:16:55.245Z,100108.20
2017-04-26T11:17:56.272Z,100116.97
2017-04-26T11:18:57.770Z,100117.58
2017-04-26T11:19:58.871Z,100114.07
2017-04-26T11:20:59.907Z,100116.27
2017-04-26T11:22:00.820Z,100113.92
2017-04-26T11:23:01.634Z,100114.87
2017-04-26T11:24:02.664Z,100114.14
2017-04-26T11:25:03.686Z,100113.88
2017-04-26T11:26:04.814Z,100115.11
2017-04-26T11:27:06.061Z,100114.95
2017-04-26T11:28:07.199Z,100108.83
2017-04-26T11:29:08.364Z,100114.25
2017-04-26T11:30:09.510Z,100113.98
2017-04-26T11:31:11.028Z,100112.19
2017-04-26T11:32:12.047Z,100108.47
2017-04-26T11:33:12.901Z,100112.31
2017-04-26T11:34:13.994Z,100111.14
2017-04-26T11:35:15.590Z,100109.28
2017-04-26T11:36:16.695Z,100117.12
2017-04-26T11:37:17.689Z,100104.92
2017-04-26T11:38:18.666Z,100103.67
2017-04-26T11:39:19.690Z,100109.90
2017-04-26T11:40:20.706Z,100105.84
2017-04-26T11:41:21.706Z,100101.70
2017-04-26T11:42:22.738Z,100104.38
2017-04-26T11:43:23.781Z,100105.42
2017-04-26T11:44:24.822Z,100100.42
2017-04-26T11:45:25.934Z,100102.50
2017-04-26T11:46:26.755Z,100100.05